Main page
METAR-TAF:

METAR-TAF

Airports :

Brize Norton, England

RAF Brize Norton

latitude: 51-45N, longitude: 001-35W, elevation: 88 m

Current weather observation

The report was made 53 minutes ago, at 17:50 UTC
Wind 14 kt from the East/Northeast
Temperature 13°C
Humidity 58%
Pressure 1022 hPa
Visibility 10 km or more
Few clouds at a height of 3800 ft
Scattered clouds at a height of 20000 ft
Overcast at a height of 25000 ft

METAR: EGVN 261750Z 07014KT 9999 FEW038 SCT200 OVC250 13/05 Q1022 NOSIG

Time: 19:43 (18:43 UTC)

Forecast

The report was made 2 hours and 20 minutes ago, at 16:23 UTC
Forecast valid from 26 at 18 UTC to 27 at 18 UTC
Wind 12 kt from the East/Northeast
Visibility 10 km or more
Few clouds at a height of 3000 ft
Probability 30%
from 27 at 01 UTC to 27 at 10 UTC
Broken clouds at a height of 1000 ft

TAF: EGVN 261623Z 2618/2718 07012KT 9999 FEW030 PROB30 2701/2710 BKN010

Weather observations and forecasts of more than 4000 airports (METAR and TAF reports).

The available stations are represented by yellow and red dots on the map.

Hover mouse over dot to see the name of the station.

Then click to see weather observations and forecasts.

To change the map : click on the green buttons with a black cross to zoom in, on the green button with a dash to zoom out, or on the green arrows for adjacent maps.


METAR-TAF: